createdAt,value
2018-03-31T00:00:01.327Z,22.73
2018-03-31T00:02:28.539Z,22.23
2018-03-31T00:04:56.006Z,27.47
2018-03-31T00:07:23.983Z,22.57
2018-03-31T00:09:51.959Z,25.67
2018-03-31T00:12:19.987Z,25.80
2018-03-31T00:14:47.199Z,28.03
2018-03-31T00:17:14.404Z,25.27
2018-03-31T00:19:41.878Z,23.53
2018-03-31T00:22:09.886Z,24.20
2018-03-31T00:24:37.106Z,23.43
2018-03-31T00:27:05.450Z,36.27
2018-03-31T00:29:32.654Z,31.57
2018-03-31T00:31:59.863Z,31.40
2018-03-31T00:34:27.262Z,31.77
2018-03-31T00:36:54.656Z,26.67
2018-03-31T00:39:21.859Z,27.37
2018-03-31T00:41:49.126Z,28.47
2018-03-31T00:44:16.334Z,30.13
2018-03-31T00:46:43.552Z,39.90
2018-03-31T00:49:10.804Z,32.37
2018-03-31T00:51:38.015Z,38.93
2018-03-31T00:54:05.220Z,37.70
2018-03-31T00:56:32.587Z,38.43
2018-03-31T00:58:59.803Z,42.17
2018-03-31T01:01:27.010Z,43.03
2018-03-31T01:03:55.285Z,34.33
2018-03-31T01:06:23.256Z,37.03
2018-03-31T01:08:51.228Z,36.87
2018-03-31T01:11:19.255Z,36.83
2018-03-31T01:13:46.473Z,39.43
2018-03-31T01:16:13.675Z,37.50
2018-03-31T01:18:40.950Z,34.10
2018-03-31T01:21:08.927Z,34.87
2018-03-31T01:23:36.896Z,38.63
2018-03-31T01:26:05.251Z,35.03
2018-03-31T01:28:32.459Z,33.27
2018-03-31T01:30:59.689Z,32.80
2018-03-31T01:33:27.046Z,34.53
2018-03-31T01:35:54.255Z,32.70
2018-03-31T01:38:21.464Z,37.37
2018-03-31T01:40:48.771Z,34.23
2018-03-31T01:43:15.978Z,35.40
2018-03-31T01:45:43.179Z,37.80
2018-03-31T01:48:11.451Z,37.60
2018-03-31T01:50:38.667Z,32.70
2018-03-31T01:53:05.879Z,41.33
2018-03-31T01:55:33.338Z,39.03
2018-03-31T01:58:00.547Z,39.63
2018-03-31T02:00:27.763Z,38.83
2018-03-31T02:02:55.171Z,40.50
2018-03-31T02:05:23.141Z,38.57
2018-03-31T02:07:51.115Z,33.37
2018-03-31T02:10:19.288Z,33.03
2018-03-31T02:12:47.260Z,31.73
2018-03-31T02:15:15.235Z,32.80
2018-03-31T02:17:42.487Z,32.37
2018-03-31T02:20:10.465Z,36.33
2018-03-31T02:22:37.672Z,27.10
2018-03-31T02:25:04.931Z,29.17
2018-03-31T02:27:32.151Z,37.00
2018-03-31T02:29:59.356Z,38.13
2018-03-31T02:32:27.559Z,33.73
2018-03-31T02:34:54.773Z,59.03
2018-03-31T02:37:22.752Z,70.60
2018-03-31T02:39:50.787Z,70.00
2018-03-31T02:42:18.000Z,100.13
2018-03-31T02:44:45.212Z,77.33
2018-03-31T02:47:12.679Z,55.03
2018-03-31T02:49:40.652Z,71.53
2018-03-31T02:52:08.624Z,83.43
2018-03-31T02:54:36.735Z,65.50
2018-03-31T02:57:03.963Z,61.40
2018-03-31T02:59:31.171Z,69.63
2018-03-31T03:01:58.750Z,53.03
2018-03-31T03:04:26.733Z,51.30
2018-03-31T03:06:54.703Z,43.27
2018-03-31T03:09:22.130Z,37.73
2018-03-31T03:11:49.337Z,49.27
2018-03-31T03:14:16.707Z,51.07
2018-03-31T03:16:44.202Z,52.97
2018-03-31T03:19:11.411Z,54.07
2018-03-31T03:21:38.635Z,51.47
2018-03-31T03:24:05.890Z,55.00
2018-03-31T03:26:33.107Z,58.33
2018-03-31T03:29:00.318Z,62.13
2018-03-31T03:31:27.824Z,56.73
2018-03-31T03:33:55.800Z,76.20
2018-03-31T03:36:23.771Z,109.20
2018-03-31T03:38:51.787Z,130.37
2018-03-31T03:41:19.151Z,112.10
2018-03-31T03:43:46.499Z,102.77
2018-03-31T03:46:14.102Z,106.37
2018-03-31T03:48:42.076Z,82.37
2018-03-31T03:51:10.047Z,82.77
2018-03-31T03:53:38.071Z,85.60
2018-03-31T03:56:05.283Z,66.50
2018-03-31T03:58:32.483Z,72.57
2018-03-31T04:00:59.735Z,78.30
2018-03-31T04:03:26.956Z,57.63
2018-03-31T04:05:54.167Z,57.77
2018-03-31T04:08:22.219Z,63.10
2018-03-31T04:10:49.755Z,63.13
2018-03-31T04:13:16.962Z,57.17
2018-03-31T04:15:45.223Z,71.90
2018-03-31T04:18:13.195Z,86.63
2018-03-31T04:20:41.166Z,73.03
2018-03-31T04:23:09.440Z,64.97
2018-03-31T04:25:37.414Z,65.50
2018-03-31T04:28:05.385Z,60.43
2018-03-31T04:30:33.419Z,78.70
2018-03-31T04:33:00.628Z,81.83
2018-03-31T04:35:27.843Z,84.40
2018-03-31T04:37:56.123Z,86.67
2018-03-31T04:40:24.103Z,89.23
2018-03-31T04:42:52.080Z,142.20
2018-03-31T04:45:19.623Z,118.30
2018-03-31T04:47:47.603Z,138.03
2018-03-31T04:50:15.641Z,227.23
2018-03-31T04:52:43.124Z,217.47
2018-03-31T04:55:11.099Z,242.70
2018-03-31T04:57:39.080Z,185.80
2018-03-31T05:00:06.475Z,168.07
2018-03-31T05:02:33.715Z,135.03
2018-03-31T05:05:00.947Z,134.17
2018-03-31T05:07:28.372Z,144.03
2018-03-31T05:09:55.579Z,147.37
2018-03-31T05:12:22.819Z,235.20
2018-03-31T05:14:50.218Z,247.73
2018-03-31T05:17:17.442Z,128.73
2018-03-31T05:19:44.655Z,101.77
2018-03-31T05:22:11.920Z,102.37
2018-03-31T05:24:39.135Z,114.07
2018-03-31T05:27:07.119Z,135.77
2018-03-31T05:29:35.387Z,98.83
2018-03-31T05:32:03.363Z,93.57
2018-03-31T05:34:31.343Z,71.57
2018-03-31T05:36:59.802Z,60.93
2018-03-31T05:39:27.780Z,55.63
2018-03-31T05:41:55.761Z,45.77
2018-03-31T05:44:23.019Z,37.00
2018-03-31T05:46:50.226Z,46.27
2018-03-31T05:49:17.439Z,57.27
2018-03-31T05:51:44.697Z,34.43
2018-03-31T05:54:11.907Z,36.87
2018-03-31T05:56:39.884Z,40.67
2018-03-31T05:59:07.147Z,66.20
2018-03-31T06:01:34.374Z,65.30
2018-03-31T06:04:02.359Z,65.50
2018-03-31T06:06:30.392Z,57.97
2018-03-31T06:08:57.676Z,49.80
2018-03-31T06:11:25.651Z,44.10
2018-03-31T06:13:53.777Z,55.57
2018-03-31T06:16:20.983Z,55.00
2018-03-31T06:18:48.195Z,58.53
2018-03-31T06:21:15.467Z,40.13
2018-03-31T06:23:43.445Z,37.67
2018-03-31T06:26:10.651Z,47.07
2018-03-31T06:28:38.145Z,35.07
2018-03-31T06:31:06.129Z,33.80
2018-03-31T06:33:33.371Z,37.93
2018-03-31T06:36:01.396Z,42.27
2018-03-31T06:38:28.608Z,28.27
2018-03-31T06:40:55.816Z,37.70
2018-03-31T06:43:23.079Z,36.30
2018-03-31T06:45:51.808Z,34.90
2018-03-31T06:48:19.028Z,37.63
2018-03-31T06:50:47.304Z,31.27
2018-03-31T06:53:15.284Z,36.33
2018-03-31T06:55:43.408Z,28.77
2018-03-31T06:58:10.763Z,32.47
2018-03-31T07:00:38.110Z,39.20
2018-03-31T07:03:05.470Z,37.33
2018-03-31T07:05:33.234Z,54.07
2018-03-31T07:08:00.593Z,48.33
2018-03-31T07:10:27.939Z,56.43
2018-03-31T07:12:55.582Z,53.10
2018-03-31T07:15:22.803Z,46.00
2018-03-31T07:17:50.179Z,49.40
2018-03-31T07:20:17.537Z,44.47
2018-03-31T07:22:44.747Z,34.67
2018-03-31T07:25:11.987Z,42.47
2018-03-31T07:27:40.255Z,39.30
2018-03-31T07:30:08.386Z,34.40
2018-03-31T07:32:35.603Z,34.90
2018-03-31T07:35:02.887Z,29.57
2018-03-31T07:37:30.108Z,34.10
2018-03-31T07:39:57.323Z,34.27
2018-03-31T07:42:24.680Z,37.40
2018-03-31T07:44:53.411Z,39.60
2018-03-31T07:47:20.794Z,41.93
2018-03-31T07:49:48.350Z,48.37
2018-03-31T07:52:15.807Z,47.47
2018-03-31T07:54:43.015Z,42.23
2018-03-31T07:57:11.051Z,35.43
2018-03-31T07:59:38.269Z,37.53
2018-03-31T08:02:05.497Z,38.83
2018-03-31T08:04:32.924Z,48.63
2018-03-31T08:07:01.065Z,30.77
2018-03-31T08:09:28.362Z,32.20
2018-03-31T08:11:56.493Z,38.80
2018-03-31T08:14:23.743Z,76.03
2018-03-31T08:16:52.021Z,61.90
2018-03-31T08:19:19.581Z,86.03
2018-03-31T08:21:46.936Z,51.83
2018-03-31T08:24:14.283Z,40.03
2018-03-31T08:26:41.791Z,35.07
2018-03-31T08:29:09.776Z,36.07
2018-03-31T08:31:36.991Z,33.10
2018-03-31T08:34:04.247Z,42.17
2018-03-31T08:36:31.456Z,31.40
2018-03-31T08:38:58.667Z,29.47
2018-03-31T08:41:26.796Z,29.00
2018-03-31T08:43:54.152Z,25.90
2018-03-31T08:46:21.362Z,32.90
2018-03-31T08:48:49.511Z,49.70
2018-03-31T08:51:17.498Z,31.53
2018-03-31T08:53:44.716Z,26.70
2018-03-31T08:56:11.988Z,29.93
2018-03-31T08:58:40.355Z,30.87
2018-03-31T09:01:07.574Z,28.73
2018-03-31T09:03:35.175Z,25.93
2018-03-31T09:06:03.159Z,27.37
2018-03-31T09:08:30.370Z,27.67
2018-03-31T09:10:57.919Z,27.17
2018-03-31T09:13:25.127Z,27.37
2018-03-31T09:15:52.369Z,24.97
2018-03-31T09:18:19.719Z,27.83
2018-03-31T09:20:47.699Z,30.47
2018-03-31T09:23:14.911Z,33.53
2018-03-31T09:25:42.604Z,31.33
2018-03-31T09:28:10.597Z,28.77
2018-03-31T09:30:37.815Z,32.47
2018-03-31T09:33:05.852Z,31.03
2018-03-31T09:35:33.509Z,33.57
2018-03-31T09:38:00.718Z,29.80
2018-03-31T09:40:29.008Z,30.10
2018-03-31T09:42:56.234Z,36.90
2018-03-31T09:45:24.221Z,30.67
2018-03-31T09:47:51.486Z,30.77
2018-03-31T09:50:18.714Z,31.10
2018-03-31T09:52:46.700Z,42.63
2018-03-31T09:55:13.975Z,38.10
2018-03-31T09:57:41.197Z,27.10
2018-03-31T10:00:08.432Z,25.73
2018-03-31T10:02:36.555Z,26.30
2018-03-31T10:05:03.767Z,23.70
2018-03-31T10:07:31.747Z,20.63
2018-03-31T10:09:59.012Z,23.27
2018-03-31T10:12:26.234Z,22.13
2018-03-31T10:14:54.226Z,25.13
2018-03-31T10:17:21.619Z,21.43
2018-03-31T10:19:48.839Z,30.47
2018-03-31T10:22:16.051Z,22.07
2018-03-31T10:24:44.355Z,23.57
2018-03-31T10:27:11.576Z,27.23
2018-03-31T10:29:39.559Z,24.07
2018-03-31T10:32:07.591Z,25.03
2018-03-31T10:34:34.810Z,28.53
2018-03-31T10:37:02.027Z,27.10
2018-03-31T10:39:30.296Z,24.77
2018-03-31T10:41:58.287Z,24.43
2018-03-31T10:44:25.529Z,27.77
2018-03-31T10:46:53.555Z,27.80
2018-03-31T10:49:20.774Z,33.40
2018-03-31T10:51:47.995Z,31.17
2018-03-31T10:54:16.127Z,29.57
2018-03-31T10:56:43.336Z,29.20
2018-03-31T10:59:10.549Z,29.97
2018-03-31T11:01:37.811Z,33.20
2018-03-31T11:04:05.023Z,29.07
2018-03-31T11:06:32.587Z,27.77
2018-03-31T11:09:00.809Z,31.70
2018-03-31T11:11:28.792Z,29.63
2018-03-31T11:13:56.038Z,29.43
2018-03-31T11:16:24.311Z,33.13
2018-03-31T11:18:52.288Z,31.97
2018-03-31T11:21:19.503Z,35.90
2018-03-31T11:23:46.768Z,28.27
2018-03-31T11:26:13.985Z,28.20
2018-03-31T11:28:41.207Z,22.97
2018-03-31T11:31:08.871Z,26.07
2018-03-31T11:33:36.230Z,23.83
2018-03-31T11:36:03.586Z,25.40
2018-03-31T11:38:31.351Z,31.90
2018-03-31T11:40:58.698Z,28.10
2018-03-31T11:43:25.915Z,28.03
2018-03-31T11:45:54.195Z,28.57
2018-03-31T11:48:21.416Z,27.47
2018-03-31T11:50:48.632Z,25.23
2018-03-31T11:53:15.908Z,26.10
2018-03-31T11:55:43.488Z,25.50
2018-03-31T11:58:11.468Z,22.43
2018-03-31T12:00:38.771Z,30.50
2018-03-31T12:03:05.984Z,27.70
2018-03-31T12:05:33.211Z,31.07
2018-03-31T12:08:01.388Z,23.87
2018-03-31T12:10:29.393Z,21.83
2018-03-31T12:12:56.629Z,24.93
2018-03-31T12:15:23.920Z,27.70
2018-03-31T12:17:51.135Z,27.10
2018-03-31T12:20:18.359Z,20.40
2018-03-31T12:22:46.402Z,24.03
2018-03-31T12:25:13.615Z,26.23
2018-03-31T12:27:40.898Z,29.97
2018-03-31T12:30:08.159Z,30.10
2018-03-31T12:32:35.377Z,27.40
2018-03-31T12:35:02.601Z,39.67
2018-03-31T12:37:31.746Z,32.30
2018-03-31T12:39:58.971Z,33.63
2018-03-31T12:42:26.198Z,25.27
2018-03-31T12:44:54.256Z,24.83
2018-03-31T12:47:22.248Z,23.60
2018-03-31T12:49:50.232Z,27.47
2018-03-31T12:52:17.541Z,27.17
2018-03-31T12:54:44.769Z,25.37
2018-03-31T12:57:11.981Z,53.63
2018-03-31T12:59:39.248Z,23.07
2018-03-31T13:02:06.462Z,28.53
2018-03-31T13:04:34.449Z,37.30
2018-03-31T13:07:02.482Z,49.27
2018-03-31T13:09:29.696Z,27.37
2018-03-31T13:11:56.908Z,27.77
2018-03-31T13:14:25.930Z,23.00
2018-03-31T13:16:53.626Z,41.43
2018-03-31T13:19:20.843Z,29.03
2018-03-31T13:21:48.103Z,24.70
2018-03-31T13:24:15.315Z,157.47
2018-03-31T13:26:43.305Z,24.80
2018-03-31T13:29:10.563Z,89.10
2018-03-31T13:31:37.794Z,26.10
2018-03-31T13:34:05.011Z,25.30
2018-03-31T13:36:33.039Z,27.20
2018-03-31T13:39:00.256Z,23.73
2018-03-31T13:41:27.491Z,34.37
2018-03-31T13:43:55.820Z,26.37
2018-03-31T13:46:23.032Z,21.87
2018-03-31T13:48:50.240Z,23.93
2018-03-31T13:51:17.515Z,24.27
2018-03-31T13:53:45.645Z,18.33
2018-03-31T13:56:13.004Z,19.20
2018-03-31T13:58:40.671Z,20.40
2018-03-31T14:01:08.016Z,31.60
2018-03-31T14:03:35.374Z,19.20
2018-03-31T14:06:02.731Z,22.50
2018-03-31T14:08:30.083Z,17.87
2018-03-31T14:10:57.438Z,22.30
2018-03-31T14:13:24.795Z,21.23
2018-03-31T14:15:52.143Z,18.70
2018-03-31T14:18:19.502Z,25.63
2018-03-31T14:20:47.166Z,17.03
2018-03-31T14:23:14.515Z,21.17
2018-03-31T14:25:41.873Z,21.10
2018-03-31T14:28:09.330Z,17.23
2018-03-31T14:30:36.687Z,24.27
2018-03-31T14:33:04.035Z,18.57
2018-03-31T14:35:31.394Z,19.47
2018-03-31T14:37:58.755Z,21.17
2018-03-31T14:40:27.633Z,22.53
2018-03-31T14:42:55.816Z,27.70
2018-03-31T14:45:23.166Z,30.53
2018-03-31T14:47:50.522Z,38.60
2018-03-31T14:50:18.187Z,21.53
2018-03-31T14:52:45.533Z,22.60
2018-03-31T14:55:12.893Z,22.30
2018-03-31T14:57:40.448Z,18.40
2018-03-31T15:00:07.809Z,17.40
2018-03-31T15:02:35.054Z,34.13
2018-03-31T15:05:03.028Z,37.53
2018-03-31T15:07:30.256Z,25.27
2018-03-31T15:09:57.478Z,23.77
2018-03-31T15:12:25.519Z,24.93
2018-03-31T15:14:52.735Z,19.30
2018-03-31T15:17:19.961Z,30.10
2018-03-31T15:19:47.228Z,51.00
2018-03-31T15:22:14.453Z,20.30
2018-03-31T15:24:42.426Z,20.03
2018-03-31T15:27:10.453Z,20.67
2018-03-31T15:29:37.676Z,37.77
2018-03-31T15:32:04.902Z,22.77
2018-03-31T15:34:33.037Z,33.07
2018-03-31T15:37:00.257Z,37.10
2018-03-31T15:39:27.475Z,61.07
2018-03-31T15:41:55.932Z,57.47
2018-03-31T15:44:23.500Z,58.40
2018-03-31T15:46:51.485Z,161.93
2018-03-31T15:49:19.737Z,471.53
2018-03-31T15:51:47.735Z,935.67
2018-03-31T15:54:14.965Z,536.90
2018-03-31T15:56:43.299Z,466.30
2018-03-31T15:59:10.528Z,367.80
2018-03-31T16:01:37.759Z,175.20
2018-03-31T16:04:05.795Z,109.60
2018-03-31T16:06:33.016Z,129.53
2018-03-31T16:09:01.003Z,146.57
2018-03-31T16:11:28.280Z,159.80
2018-03-31T16:13:56.431Z,122.33
2018-03-31T16:16:23.659Z,115.80
2018-03-31T16:18:50.938Z,127.80
2018-03-31T16:21:18.160Z,102.00
2018-03-31T16:23:45.384Z,99.13
2018-03-31T16:26:13.424Z,117.67
2018-03-31T16:28:41.076Z,140.57
2018-03-31T16:31:08.287Z,124.57
2018-03-31T16:33:35.540Z,113.90
2018-03-31T16:36:02.763Z,103.20
2018-03-31T16:38:30.761Z,107.63
2018-03-31T16:40:58.030Z,111.20
2018-03-31T16:43:25.250Z,56.23
2018-03-31T16:45:53.943Z,36.63
2018-03-31T16:48:21.303Z,28.93
2018-03-31T16:50:48.512Z,27.50
2018-03-31T16:53:15.732Z,29.07
2018-03-31T16:55:43.002Z,33.07
2018-03-31T16:58:10.219Z,43.30
2018-03-31T17:00:37.440Z,40.70
2018-03-31T17:03:05.711Z,37.70
2018-03-31T17:05:33.700Z,43.87
2018-03-31T17:08:00.921Z,49.50
2018-03-31T17:10:28.291Z,125.90
2018-03-31T17:12:56.280Z,59.10
2018-03-31T17:15:23.524Z,106.83
2018-03-31T17:17:50.812Z,112.63
2018-03-31T17:20:18.029Z,47.50
2018-03-31T17:22:45.247Z,52.00
2018-03-31T17:25:12.744Z,50.37
2018-03-31T17:27:39.959Z,40.10
2018-03-31T17:30:07.171Z,34.03
2018-03-31T17:32:34.743Z,53.40
2018-03-31T17:35:01.986Z,107.80
2018-03-31T17:37:29.217Z,131.77
2018-03-31T17:39:56.865Z,80.87
2018-03-31T17:42:24.084Z,68.83
2018-03-31T17:44:51.317Z,47.57
2018-03-31T17:47:18.583Z,53.40
2018-03-31T17:49:46.112Z,117.00
2018-03-31T17:52:14.111Z,79.70
2018-03-31T17:54:41.515Z,44.90
2018-03-31T17:57:08.994Z,37.93
2018-03-31T17:59:36.996Z,28.23
2018-03-31T18:02:04.276Z,96.60
2018-03-31T18:04:31.502Z,55.17
2018-03-31T18:06:58.760Z,34.63
2018-03-31T18:09:26.383Z,32.00
2018-03-31T18:11:54.368Z,71.83
2018-03-31T18:14:21.595Z,51.10
2018-03-31T18:16:49.720Z,75.00
2018-03-31T18:19:16.939Z,40.97
2018-03-31T18:21:44.165Z,97.57
2018-03-31T18:24:11.495Z,72.43
2018-03-31T18:26:38.750Z,210.93
2018-03-31T18:29:06.010Z,164.87
2018-03-31T18:31:33.287Z,71.10
2018-03-31T18:34:01.295Z,53.13
2018-03-31T18:36:28.526Z,91.30
2018-03-31T18:38:56.396Z,55.70
2018-03-31T18:41:24.363Z,47.73
2018-03-31T18:43:51.595Z,80.67
2018-03-31T18:46:19.636Z,57.73
2018-03-31T18:48:46.860Z,53.20
2018-03-31T18:51:14.087Z,19.53
2018-03-31T18:53:42.305Z,67.07
2018-03-31T18:56:09.535Z,37.10
2018-03-31T18:58:36.755Z,38.73
2018-03-31T19:01:05.028Z,45.57
2018-03-31T19:03:33.015Z,58.83
2018-03-31T19:06:00.714Z,43.87
2018-03-31T19:08:27.979Z,50.50
2018-03-31T19:10:55.244Z,67.97
2018-03-31T19:13:22.469Z,47.77
2018-03-31T19:15:50.085Z,28.67
2018-03-31T19:18:19.001Z,41.83
2018-03-31T19:20:46.224Z,39.40
2018-03-31T19:23:14.406Z,30.50
2018-03-31T19:25:41.644Z,40.70
2018-03-31T19:28:09.627Z,24.57
2018-03-31T19:30:42.796Z,34.43
2018-03-31T19:33:11.133Z,29.83
2018-03-31T19:35:44.841Z,31.93
2018-03-31T19:38:12.061Z,60.07
2018-03-31T19:40:39.289Z,40.00
2018-03-31T19:43:07.560Z,63.30
2018-03-31T19:45:35.552Z,92.27
2018-03-31T19:48:03.616Z,76.97
2018-03-31T19:50:31.071Z,79.63
2018-03-31T19:52:58.313Z,79.40
2018-03-31T19:55:26.316Z,57.23
2018-03-31T19:57:54.804Z,15.13
2018-03-31T20:00:22.028Z,30.67
2018-03-31T20:02:50.026Z,76.57
2018-03-31T20:05:17.555Z,89.67
2018-03-31T20:07:44.778Z,56.67
2018-03-31T20:10:12.004Z,29.90
2018-03-31T20:12:39.556Z,27.97
2018-03-31T20:15:06.768Z,34.53
2018-03-31T20:17:33.984Z,34.13
2018-03-31T20:20:02.030Z,27.87
2018-03-31T20:22:29.254Z,70.43
2018-03-31T20:24:56.468Z,52.47
2018-03-31T20:27:23.725Z,39.00
2018-03-31T20:29:50.960Z,52.87
2018-03-31T20:32:18.944Z,45.20
2018-03-31T20:34:46.240Z,66.83
2018-03-31T20:37:13.458Z,40.07
2018-03-31T20:39:40.677Z,24.30
2018-03-31T20:42:08.717Z,22.03
2018-03-31T20:44:35.928Z,60.50
2018-03-31T20:47:03.144Z,75.33
2018-03-31T20:49:30.548Z,25.77
2018-03-31T20:51:57.765Z,12.20
2018-03-31T20:54:25.748Z,12.07
2018-03-31T20:56:54.004Z,13.13
2018-03-31T20:59:21.984Z,10.17
2018-03-31T21:01:49.974Z,12.83
2018-03-31T21:04:17.609Z,13.70
2018-03-31T21:06:45.597Z,13.87
2018-03-31T21:09:12.825Z,12.23
2018-03-31T21:11:40.858Z,13.03
2018-03-31T21:14:08.081Z,11.43
2018-03-31T21:16:35.305Z,13.27
2018-03-31T21:19:03.656Z,13.97
2018-03-31T21:21:30.880Z,14.80
2018-03-31T21:23:58.108Z,33.03
2018-03-31T21:26:25.389Z,40.00
2018-03-31T21:28:52.611Z,26.43
2018-03-31T21:31:19.828Z,13.13
2018-03-31T21:33:47.088Z,12.23
2018-03-31T21:36:15.064Z,18.00
2018-03-31T21:38:43.046Z,13.67
2018-03-31T21:41:11.097Z,15.23
2018-03-31T21:43:39.076Z,9.07
2018-03-31T21:46:07.056Z,9.57
2018-03-31T21:48:34.493Z,12.40
2018-03-31T21:51:02.496Z,9.70
2018-03-31T21:53:29.712Z,7.30
2018-03-31T21:55:57.732Z,9.03
2018-03-31T21:58:24.939Z,6.53
2018-03-31T22:00:52.912Z,11.00
2018-03-31T22:03:21.180Z,20.63
2018-03-31T22:05:49.161Z,28.90
2018-03-31T22:08:17.145Z,19.30
2018-03-31T22:10:44.419Z,14.93
2018-03-31T22:13:17.135Z,15.47
2018-03-31T22:15:49.240Z,12.63
2018-03-31T22:18:16.464Z,12.93
2018-03-31T22:20:44.452Z,12.33
2018-03-31T22:23:11.896Z,10.93
2018-03-31T22:25:39.876Z,10.70
2018-03-31T22:28:07.857Z,12.67
2018-03-31T22:30:35.199Z,12.60
2018-03-31T22:33:03.171Z,12.17
2018-03-31T22:35:31.158Z,12.03
2018-03-31T22:37:58.420Z,12.40
2018-03-31T22:40:25.633Z,10.17
2018-03-31T22:42:53.612Z,12.57
2018-03-31T22:45:21.636Z,10.63
2018-03-31T22:47:48.840Z,9.97
2018-03-31T22:50:16.072Z,10.90
2018-03-31T22:59:27.871Z,8.50
2018-03-31T23:01:55.076Z,9.07
2018-03-31T23:04:23.048Z,10.17
2018-03-31T23:06:50.308Z,9.97
2018-03-31T23:09:17.512Z,8.77
2018-03-31T23:11:44.724Z,6.90
2018-03-31T23:14:12.141Z,9.50
2018-03-31T23:16:40.144Z,6.70
2018-03-31T23:19:07.380Z,8.83
2018-03-31T23:21:34.668Z,10.30
2018-03-31T23:24:01.920Z,8.03
2018-03-31T23:26:29.891Z,10.47
2018-03-31T23:28:57.153Z,9.90
2018-03-31T23:31:24.361Z,5.27
2018-03-31T23:33:51.585Z,10.03
2018-03-31T23:36:19.607Z,6.00
2018-03-31T23:38:46.812Z,8.20
2018-03-31T23:41:14.784Z,9.23
2018-03-31T23:43:42.804Z,7.10
2018-03-31T23:46:10.012Z,7.63
2018-03-31T23:48:37.984Z,6.73
2018-03-31T23:51:06.018Z,11.23
2018-03-31T23:53:33.252Z,9.47
2018-03-31T23:56:00.519Z,5.73
2018-03-31T23:58:28.004Z,10.50
